Avon, Mississippi
Current Conditions -  °F | °C
As of 3:53 PM on Friday 31 Oct 2014 (Local Time) from KGLH Reporting Station
Overcast Overcast  
Wind Chill: 16°   Ceiling: 4700
Heat Index: 16°   Visibility: 10mi
Dew Point:   Wind: 20mph
Humidity: 52%   Direction: 10°N
Pressure: 30.14"   Gusts: NA
Location:  33.23°N, 91.05°W
Report Text: KGLH 312053Z AUTO 01017KT 10SM BKN047 OVC055 16/06 A3014 RMK AO2 PK WND 36026/1955 SLP213 T01610061 53004
Loading
Personal Weather Stations






























Interactive Weather Map
Tropical Storm Tracking
New forecast layout! Learn more

10-Day Weather Forecast

Advertisements
Track Severe Weather on mobile